Terminal Aerodrome Forecast
Issued by NWS Wichita, KS

Home | Current Version | Previous Version | Text Only | Print | Product List | Glossary Off
Versions: 1 2 3 4 5 6 7 8 9 10 11 12 13 14 15 16 17 18

000
FTUS43 KICT 221700
TAFICT
TAF
KICT 221720Z 2218/2318 18017G25KT P6SM SCT120 BKN150
     FM230000 18009KT P6SM VCSH OVC070
      TEMPO 2301/2305 6SM -SHRA
     FM231200 18006KT 4SM BR BKN008=

USA.gov is the U.S. government's official web portal to all federal, state and local government web resources and services.